• Join FlightAware (Why Join?)
  • Login
  • US Flag 
04:04PM EDT


 

Airport Tracker/Info


-or-


 

Live Flight TrackerFlight Track Log ✈ N566UA ✈ 05-Apr-2013 ✈ KLAS - KEWR

Flight Track Log - Related Links

Times and Time Zones

All times are in EDT time to prevent confusion due to time zone crossing. See the N566UA flight status page for this flight to view local times or setup timezone preferences in your user account.

Time Position Orientation Groundspeed Altitude Reporting Facility
EDT Latitude Longitude Course Direction KTS MPH feet Rate Location/Type
07:19PM 36.0767 -115.1706 94° East 172 198 3,200  Level Los Angeles Center
07:20PM 36.0764 -115.1894 269° West 174 200 3,600 1,500 Climbing Los Angeles Center
07:21PM 36.0778 -115.2642 271° West 212 244 5,300 2,100 Climbing Los Angeles Center
07:22PM 36.1834 -115.0503 90° East  Level FlightAware Approximate
07:22PM 36.1406 -115.2933 339° North 249 287 8,100  Level Los Angeles Center
07:23PM 36.1833 -114.8881 90° East  Level FlightAware Approximate
07:23PM 36.1842 -115.2269 51° Northeast 264 304 10,100  Level Los Angeles Center
07:24PM 36.1978 -114.7279 94° East  Level FlightAware Approximate
07:24PM 36.1967 -115.1158 82° East 325 374 11,300  Level Los Angeles Center
07:25PM 36.1969 -114.9639 90° East 365 420 13,900 2,580 Climbing Los Angeles Center
07:26PM 36.1981 -114.8314 89° East 380 437 16,700 2,280 Climbing Los Angeles Center
07:27PM 36.1981 -114.6942 90° East 391 450 18,700 1,860 Climbing Los Angeles Center
07:28PM 36.1956 -114.5514 91° East 408 470 20,600 1,740 Climbing Los Angeles Center
07:29PM 36.1944 -114.4028 90° East 425 489 22,400 1,740 Climbing Los Angeles Center
07:30PM 36.1928 -114.2186 91° East 444 511 24,200 1,500 Climbing Los Angeles Center
07:31PM 36.2136 -114.0608 81° East 462 532 25,500 1,320 Climbing Los Angeles Center
07:32PM 36.2339 -113.8981 81° East 475 547 27,000 1,380 Climbing Los Angeles Center
07:33PM 36.2531 -113.7317 82° East 485 558 28,400 1,200 Climbing Los Angeles Center
07:34PM 36.2733 -113.5617 82° East 493 567 29,500 1,140 Climbing Los Angeles Center
07:35PM 36.2925 -113.3883 82° East 504 580 30,800 1,200 Climbing Los Angeles Center
07:36PM 36.3253 -113.1853 79° East 506 582 32,000 540 Climbing Los Angeles Center
07:37PM 36.3811 -113.0328 66° East 492 566 32,000  Level Los Angeles Center
07:38PM 36.4381 -112.8800 65° Northeast 491 565 32,100 480 Climbing Los Angeles Center
07:39PM 36.4936 -112.7294 65° Northeast 486 559 33,000 420 Climbing Los Angeles Center
07:40PM 36.5481 -112.5794 66° East 482 555 33,000  Level Los Angeles Center
07:41PM 36.6153 -112.3983 65° Northeast 483 556 33,000  Level Los Angeles Center
07:42PM 36.6706 -112.2475 65° Northeast 483 556 33,000  Level Los Angeles Center
07:43PM 36.7256 -112.0953 66° East 484 557 33,000  Level Los Angeles Center
07:44PM 36.7467 -112.0356 66° East 483 556 33,000  Level Denver Center
07:45PM 36.8031 -111.8814 65° Northeast 487 560 33,000  Level Denver Center
07:46PM 36.8686 -111.6967 66° East 488 562 33,000  Level Denver Center
07:47PM 36.9242 -111.5447 65° Northeast 485 558 33,000  Level Denver Center
07:48PM 36.9778 -111.3911 66° East 485 558 33,000 60 Level Denver Center
07:49PM 37.0256 -111.2406 68° East 475 547 33,200 480 Climbing Denver Center
07:50PM 37.0703 -111.0803 71° East 490 564 34,100 1,020 Climbing Denver Center
07:51PM 37.1214 -110.8881 72° East 488 562 35,400 1,080 Climbing Denver Center
07:52PM 37.1656 -110.7275 71° East 490 564 36,400 720 Climbing Denver Center
07:53PM 37.2069 -110.5686 72° East 484 557 37,000 240 Climbing Denver Center
07:54PM 37.2497 -110.4086 71° East 483 556 37,000  Level Denver Center
07:55PM 37.2922 -110.2483 72° East 485 558 37,000  Level Denver Center
07:56PM 37.3361 -110.0825 72° East 487 560 37,000  Level Denver Center
07:57PM 37.3831 -109.8994 72° East 490 564 37,000  Level Denver Center
07:58PM 37.4244 -109.7422 72° East 495 570 37,000  Level Denver Center
07:59PM 37.4725 -109.5564 72° East 499 574 37,000  Level Denver Center
08:00PM 37.5133 -109.3978 72° East 497 572 37,000  Level Denver Center
08:01PM 37.5606 -109.2117 72° East 498 573 37,000  Level Denver Center
08:02PM 37.6000 -109.0508 73° East 500 575 37,000  Level Denver Center
08:03PM 37.6458 -108.8661 73° East 494 568 37,000  Level Denver Center
08:05PM 37.6847 -108.7067 73° East 495 570 37,000  Level Denver Center
08:06PM 37.7314 -108.5225 72° East 493 567 37,000  Level Denver Center
08:07PM 37.7703 -108.3642 73° East 492 566 37,000  Level Denver Center
08:08PM 37.8097 -108.2072 72° East 489 563 37,000  Level Denver Center
08:09PM 37.8547 -108.0231 73° East 490 564 37,000  Level Denver Center
08:10PM 37.8925 -107.8653 73° East 490 564 37,000  Level Denver Center
08:11PM 37.9372 -107.6775 73° East 495 570 37,000  Level Denver Center
08:12PM 37.9797 -107.5189 71° East 498 573 37,000  Level Denver Center
08:13PM 38.0522 -107.3522 61° Northeast 483 556 37,000  Level Denver Center
08:14PM 38.1194 -107.1981 61° Northeast 485 558 37,000  Level Denver Center
08:15PM 38.1831 -107.0567 60° Northeast 480 552 37,000  Level Denver Center
08:16PM 38.2478 -106.9081 61° Northeast 481 554 37,000  Level Denver Center
08:17PM 38.3197 -106.7503 60° Northeast 483 556 37,000  Level Denver Center
08:18PM 38.3831 -106.6072 61° Northeast 485 558 37,000  Level Denver Center
08:19PM 38.4306 -106.4492 69° East 493 567 37,000  Level Denver Center
08:20PM 38.4756 -106.2486 74° East 492 566 37,000  Level Denver Center
08:21PM 38.5133 -106.0867 73° East 492 566 37,000  Level Denver Center
08:22PM 38.5547 -105.8986 74° East 492 566 37,000  Level Denver Center
08:23PM 38.5992 -105.6917 75° East 491 565 37,000  Level Denver Center
08:24PM 38.6350 -105.5239 75° East 486 559 37,000  Level Denver Center
08:25PM 38.6711 -105.3525 75° East 493 567 37,000  Level Denver Center
08:26PM 38.7058 -105.1850 75° East 486 559 37,000  Level Denver Center
08:27PM 38.7425 -105.0147 75° East 492 566 37,000  Level Denver Center
08:29PM 38.7792 -104.8431 75° East 495 570 37,000  Level Denver Center
08:30PM 38.8264 -104.6167 75° East 493 567 37,000  Level Denver Center
08:31PM 38.8614 -104.4450 75° East 493 567 37,000  Level Denver Center
08:32PM 38.8961 -104.2761 75° East 491 565 37,000  Level Denver Center
08:33PM 38.9308 -104.1042 75° East 494 568 37,000  Level Denver Center
08:34PM 38.9653 -103.9325 75° East 495 570 37,000  Level Denver Center
08:35PM 38.9981 -103.7611 76° East 492 566 37,000  Level Denver Center
08:36PM 39.0336 -103.5872 75° East 498 573 37,000  Level Denver Center
08:37PM 39.0725 -103.3861 76° East 495 570 37,000  Level Denver Center
08:38PM 39.1075 -103.2111 75° East 499 574 37,000  Level Denver Center
08:39PM 39.1447 -103.0083 77° East 496 571 37,000  Level Denver Center
08:40PM 39.1775 -102.8342 76° East 497 572 37,000  Level Denver Center
08:41PM 39.2100 -102.6603 76° East 494 568 37,000  Level Denver Center
08:42PM 39.2461 -102.4697 76° East 490 564 37,000  Level Denver Center
08:43PM 39.2758 -102.3061 77° East 490 564 37,000  Level Denver Center
08:44PM 39.3064 -102.1447 76° East 487 560 37,000  Level Denver Center
08:45PM 39.3383 -101.9697 77° East 489 563 37,000  Level Denver Center
08:46PM 39.3722 -101.7786 77° East 491 565 37,000  Level Denver Center
08:47PM 39.4128 -101.6169 72° East 497 572 37,000  Level Denver Center
08:48PM 39.4653 -101.4294 70° East 499 574 37,000  Level Denver Center
08:49PM 39.5119 -101.2694 69° East 499 574 37,000  Level Denver Center
08:50PM 39.5672 -101.0819 69° East 499 574 37,000  Level Denver Center
08:51PM 39.6142 -100.9211 69° East 500 575 37,000  Level Denver Center
08:52PM 39.6675 -100.7356 69° East 494 568 37,000  Level Denver Center
08:54PM 39.7136 -100.5750 69° East 497 572 37,000  Level Denver Center
08:55PM 39.7594 -100.4169 69° East 493 567 37,000  Level Denver Center
08:56PM 39.8122 -100.2306 70° East 494 568 37,000  Level Denver Center
08:57PM 39.8583 -100.0656 70° East 487 560 37,000  Level Denver Center
08:58PM 39.9044 -99.8994 70° East 488 562 37,000  Level Denver Center
08:59PM 39.9497 -99.7336 70° East 486 559 37,000  Level Denver Center
09:00PM 39.9953 -99.5683 70° East 487 560 37,000  Level Denver Center
09:01PM 40.0406 -99.4019 70° East 487 560 37,000  Level Denver Center
09:02PM 40.0950 -99.2050 70° East 485 558 37,000  Level Denver Center
09:03PM 40.1400 -99.0394 70° East 483 556 37,000  Level Denver Center
09:04PM 40.1847 -98.8736 71° East 485 558 37,000  Level Denver Center
09:05PM 40.2186 -98.7417 71° East 485 558 37,000  Level Minneapolis Center
09:06PM 40.2633 -98.5761 70° East 485 558 37,000  Level Minneapolis Center
09:07PM 40.3072 -98.4097 71° East 485 558 37,000  Level Minneapolis Center
09:08PM 40.3506 -98.2419 71° East 487 560 37,000  Level Minneapolis Center
09:09PM 40.3939 -98.0742 71° East 488 562 37,000  Level Minneapolis Center
09:10PM 40.4461 -97.8717 71° East 490 564 37,000  Level Minneapolis Center
09:11PM 40.4886 -97.7014 72° East 492 566 37,000  Level Minneapolis Center
09:12PM 40.5314 -97.5322 72° East 491 565 37,000  Level Minneapolis Center
09:13PM 40.5753 -97.3614 71° East 493 567 37,000  Level Minneapolis Center
09:14PM 40.6231 -97.1667 72° East 496 571 37,000  Level Minneapolis Center
09:15PM 40.6653 -96.9958 72° East 493 567 37,000  Level Minneapolis Center
09:16PM 40.7078 -96.8239 72° East 495 570 37,000  Level Minneapolis Center
09:17PM 40.7506 -96.6522 72° East 494 568 37,000  Level Minneapolis Center
09:18PM 40.7917 -96.4800 72° East 494 568 37,000  Level Minneapolis Center
09:19PM 40.8336 -96.3081 72° East 495 570 37,000  Level Minneapolis Center
09:20PM 40.8839 -96.1006 72° East 498 573 37,000  Level Minneapolis Center
09:21PM 40.9253 -95.9300 72° East 495 570 37,000  Level Minneapolis Center
09:22PM 40.9642 -95.7572 73° East 495 570 37,000  Level Minneapolis Center
09:23PM 41.0044 -95.5836 73° East 497 572 37,000  Level Minneapolis Center
09:24PM 41.0453 -95.4092 73° East 500 575 37,000  Level Minneapolis Center
09:25PM 41.0939 -95.1989 73° East 500 575 37,000  Level Minneapolis Center
09:26PM 41.1336 -95.0242 73° East 499 574 37,000  Level Minneapolis Center
09:27PM 41.1731 -94.8494 73° East 497 572 37,000  Level Minneapolis Center
09:28PM 41.2125 -94.6744 73° East 497 572 37,000  Level Minneapolis Center
09:29PM 41.2514 -94.4989 74° East 497 572 37,000  Level Minneapolis Center
09:30PM 41.2900 -94.3225 74° East 498 573 37,000  Level Minneapolis Center
09:31PM 41.3328 -94.1264 74° East 498 573 37,000  Level Minneapolis Center
09:32PM 41.3711 -93.9492 74° East 499 574 37,000  Level Minneapolis Center
09:33PM 41.4103 -93.7725 73° East 500 575 37,000  Level Minneapolis Center
09:34PM 41.4428 -93.5931 76° East 502 578 37,000  Level Minneapolis Center
09:35PM 41.4608 -93.4086 82° East 504 580 37,000  Level Minneapolis Center
09:37PM 41.4806 -93.1892 83° East 501 577 37,000  Level Minneapolis Center
09:38PM 41.4978 -93.0072 83° East 499 574 37,000  Level Minneapolis Center
09:39PM 41.5150 -92.8281 83° East 495 570 37,000  Level Minneapolis Center
09:40PM 41.5322 -92.6447 83° East 497 572 37,000  Level Minneapolis Center
09:41PM 41.5478 -92.4597 84° East 497 572 37,000  Level Chicago Center
09:42PM 41.5636 -92.2789 83° East 498 573 37,000  Level Chicago Center
09:43PM 41.5800 -92.0978 83° East 498 573 37,000  Level Chicago Center
09:44PM 41.5981 -91.8775 84° East 502 578 37,000  Level Chicago Center
09:45PM 41.6133 -91.6961 84° East 500 575 37,000  Level Chicago Center
09:46PM 41.6272 -91.5119 84° East 502 578 37,000  Level Chicago Center
09:47PM 41.6428 -91.3289 83° East 504 580 37,000  Level Chicago Center
09:48PM 41.6567 -91.1456 84° East 502 578 37,000  Level Chicago Center
09:49PM 41.6708 -90.9628 84° East 503 579 37,000  Level Chicago Center
09:50PM 41.6867 -90.7411 84° East 504 580 37,000  Level Chicago Center
09:51PM 41.6986 -90.5836 84° East 505 581 37,000  Level Chicago Center
09:52PM 41.7139 -90.3617 85° East 500 575 37,000  Level Chicago Center
09:53PM 41.7267 -90.1772 85° East 497 572 37,000  Level Chicago Center
09:54PM 41.7392 -89.9906 85° East 501 577 37,000  Level Chicago Center
09:55PM 41.7506 -89.8053 85° East 499 574 37,000  Level Chicago Center
09:56PM 41.7622 -89.6192 85° East 500 575 37,000  Level Chicago Center
09:57PM 41.7756 -89.4228 85° East 500 575 37,000  Level Chicago Center
09:58PM 41.7864 -89.2375 85° East 502 578 37,000  Level Chicago Center
09:59PM 41.7972 -89.0528 85° East 502 578 37,000  Level Chicago Center
10:00PM 41.8067 -88.8661 86° East 503 579 37,000  Level Chicago Center
10:01PM 41.8172 -88.6811 86° East 504 580 37,000  Level Chicago Center
10:02PM 41.8272 -88.4972 86° East 497 572 37,000  Level Chicago Center
10:03PM 41.8375 -88.2736 86° East 498 573 37,000  Level Chicago Center
10:04PM 41.8461 -88.0881 86° East 498 573 37,000  Level Chicago Center
10:05PM 41.8556 -87.9036 86° East 495 570 37,000  Level Chicago Center
10:06PM 41.8639 -87.7189 86° East 496 571 37,000  Level Chicago Center
10:07PM 41.8733 -87.5342 86° East 496 571 37,000  Level Chicago Center
10:08PM 41.8803 -87.3483 87° East 500 575 37,000  Level Chicago Center
10:09PM 41.8881 -87.1653 87° East 494 568 37,000  Level Chicago Center
10:10PM 41.8953 -86.9803 87° East 496 571 37,000  Level Chicago Center
10:11PM 41.9031 -86.7975 87° East 495 570 37,000  Level Chicago Center
10:12PM 41.9108 -86.5814 87° East 497 572 37,000  Level Chicago Center
10:13PM 41.9172 -86.3978 87° East 494 568 37,000  Level Chicago Center
10:14PM 41.9222 -86.2125 88° East 497 572 37,000  Level Chicago Center
10:15PM 41.9294 -86.0261 87° East 500 575 37,000  Level Chicago Center
10:16PM 41.9347 -85.8414 88° East 496 571 37,000  Level Chicago Center
10:17PM 41.9394 -85.6533 88° East 499 574 37,000  Level Chicago Center
10:19PM 41.9447 -85.4669 88° East 494 568 37,000  Level Chicago Center
10:20PM 41.9500 -85.2786 88° East 498 573 37,000  Level Chicago Center
10:20PM 41.9547 -85.1964 86° East 487 560 37,000  Level Cleveland Center
10:21PM 41.9517 -85.0119 91° East 493 567 37,000  Level Cleveland Center
10:22PM 41.9503 -84.8247 91° East 498 573 37,000  Level Cleveland Center
10:23PM 41.9508 -84.6375 90° East 498 573 37,000  Level Cleveland Center
10:24PM 41.9469 -84.4503 92° East 498 573 37,000  Level Cleveland Center
10:25PM 41.9431 -84.2517 91° East 498 573 37,000  Level Cleveland Center
10:26PM 41.9406 -84.0644 91° East 498 573 37,000  Level Cleveland Center
10:27PM 41.9375 -83.8828 91° East 498 573 37,000  Level Cleveland Center
10:28PM 41.9342 -83.6983 91° East 498 573 37,000  Level Cleveland Center
10:29PM 41.9331 -83.5111 90° East 498 573 37,000  Level Cleveland Center
10:30PM 41.9333 -83.3297 90° East 498 573 37,000  Level Cleveland Center
10:31PM 41.9292 -83.1481 92° East 493 567 37,000  Level Cleveland Center
10:32PM 41.9289 -82.9667 90° East 498 573 37,000  Level Cleveland Center
10:33PM 41.9281 -82.7992 90° East 498 573 37,000  Level Cleveland Center
10:34PM 41.9253 -82.6178 91° East 498 573 37,000  Level Cleveland Center
10:35PM 41.9242 -82.4333 90° East 498 573 37,000  Level Cleveland Center
10:36PM 41.9208 -82.2492 91° East 498 573 37,000  Level Cleveland Center
10:37PM 41.9192 -82.0508 91° East 498 573 37,000  Level Cleveland Center
10:38PM 41.9153 -81.8639 92° East 498 573 37,000  Level Cleveland Center
10:39PM 41.9006 -81.6767 96° East 498 573 37,000  Level Cleveland Center
10:40PM 41.8856 -81.4894 96° East 504 580 37,000  Level Cleveland Center
10:41PM 41.8681 -81.3053 97° East 504 580 37,000  Level Cleveland Center
10:42PM 41.8525 -81.1211 96° East 504 580 37,000  Level Cleveland Center
10:43PM 41.8344 -80.9314 97° East 504 580 37,000 -300 Level Cleveland Center
10:44PM 41.8181 -80.7669 98° East 504 580 36,500 -960 Descending Cleveland Center
10:45PM 41.7994 -80.5803 98° East 504 580 35,100 -780 Descending Cleveland Center
10:46PM 41.7806 -80.3911 98° East 509 586 35,000 -60 Descending Cleveland Center
10:47PM 41.7633 -80.2017 97° East 509 586 35,000  Level Cleveland Center
10:48PM 41.7439 -80.0128 98° East 504 580 35,000  Level Cleveland Center
10:49PM 41.7197 -79.8097 99° East 504 580 35,000  Level Cleveland Center
10:50PM 41.7042 -79.6597 98° East 504 580 35,000  Level Cleveland Center
10:51PM 41.6811 -79.4378 98° East 504 580 35,000  Level Cleveland Center
10:52PM 41.6625 -79.2519 98° East 504 580 35,000  Level Cleveland Center
10:53PM 41.6394 -79.0633 99° East 504 580 35,000  Level Cleveland Center
10:54PM 41.6181 -78.8750 99° East 504 580 35,000  Level Cleveland Center
10:55PM 41.5983 -78.6894 98° East 504 580 35,000  Level Cleveland Center
10:56PM 41.5742 -78.4986 100° East 504 580 35,000 -240 Level Cleveland Center
10:57PM 41.5539 -78.3106 98° East 504 580 34,600 -660 Descending Cleveland Center
10:57PM 41.5503 -78.2861 101° East 481 554 34,200 -2,640 Descending New York Center
10:58PM 41.5267 -78.0978 99° East 475 547 31,300 -1,620 Descending New York Center
10:59PM 41.5050 -77.9069 99° East 496 571 31,000 -180 Descending New York Center
11:00PM 41.4767 -77.7128 101° East 517 595 31,000 -480 Level New York Center
11:01PM 41.4483 -77.5189 101° East 533 613 30,100 -1,140 Descending New York Center
11:02PM 41.4164 -77.3108 102° East 533 613 28,800 -1,260 Descending New York Center
11:03PM 41.3892 -77.1175 101° East 533 613 27,600 -1,320 Descending New York Center
11:04PM 41.3617 -76.9297 101° East 528 608 26,300 -1,380 Descending New York Center
11:05PM 41.3294 -76.7469 103° East 518 596 24,900 -1,380 Descending New York Center
11:06PM 41.2836 -76.5744 109° East 502 578 23,600 -1,500 Descending New York Center
11:07PM 41.2397 -76.4081 109° East 489 563 21,900 -1,680 Descending New York Center
11:08PM 41.1986 -76.2611 110° East 477 549 20,300 -1,680 Descending New York Center
11:09PM 41.1581 -76.1036 109° East 465 535 18,600 -1,800 Descending New York Center
11:10PM 41.1114 -75.9344 110° East 443 510 16,800 -1,680 Descending New York Center
11:11PM 41.0736 -75.7914 109° East 430 495 15,300 -1,500 Descending New York Center
11:12PM 41.0356 -75.6564 110° East 430 495 13,800 -1,440 Descending New York Center
11:13PM 40.9956 -75.5133 110° East 423 487 12,500 -1,260 Descending New York Center
11:14PM 40.9553 -75.3731 111° Southeast 398 458 11,300 -1,140 Descending New York Center
11:15PM 40.9261 -75.2669 110° East 354 407 10,300 -960 Descending New York Center
11:16PM 40.8947 -75.1578 111° Southeast 327 376 9,400 -660 Descending New York Center
11:17PM 40.8617 -75.0375 110° East 314 361 9,000 -300 Descending New York Center
11:18PM 40.8300 -74.9314 111° Southeast 314 361 8,900 -660 Descending New York Center
11:19PM 40.8022 -74.8311 110° East 314 361 7,700 -1,260 Descending New York Center
11:20PM 40.7664 -74.7192 113° Southeast 309 356 6,400 -900 Descending New York Center
11:21PM 40.7006 -74.6964 165° South 264 304 6,000 -600 Descending New York Center
11:22PM 40.6281 -74.6786 169° South 252 290 5,300 -900 Descending New York Center
11:22PM 40.6167 -74.6833 197° South 236 272 4,900 -300 Descending New York TRACON
11:24PM 40.5333 -74.6667 171° South 238 274 4,900 -180 Level New York TRACON
11:24PM 40.4833 -74.6500 166° South 215 247 4,600 -540 Descending New York TRACON
11:25PM 40.4333 -74.6167 153° Southeast 217 250 3,900 -660 Descending New York TRACON
11:26PM 40.4000 -74.5500 123° Southeast 216 249 3,300 -540 Descending New York TRACON
11:27PM 40.4000 -74.4833 90° East 197 227 2,900 -240 Descending New York TRACON
11:28PM 40.4000 -74.4000 90° East 198 228 2,900  Level New York TRACON
11:29PM 40.4167 -74.3500 66° East 183 211 3,000  Climbing New York TRACON
11:31PM 40.4667 -74.3167 27° Northeast 157 181 2,900  Descending New York TRACON
11:32PM 40.5000 -74.2833 37° Northeast 153 176 3,000  Climbing New York TRACON
11:32PM 40.5333 -74.2667 21° North 153 176 3,000  Level New York TRACON